sensor_id;sensor_type;location;lat;lon;timestamp;pressure;altitude;pressure_sealevel;temperature
18161;BMP280;9205;52.032;4.314;2022-09-09T00:02:20;100663.25;;;18.58
18161;BMP280;9205;52.032;4.314;2022-09-09T00:04:58;100663.00;;;18.63
18161;BMP280;9205;52.032;4.314;2022-09-09T00:07:41;100665.31;;;18.67
18161;BMP280;9205;52.032;4.314;2022-09-09T00:10:20;100672.97;;;18.69
18161;BMP280;9205;52.032;4.314;2022-09-09T00:12:57;100657.19;;;18.75
18161;BMP280;9205;52.032;4.314;2022-09-09T00:15:36;100657.63;;;18.81
18161;BMP280;9205;52.032;4.314;2022-09-09T00:18:17;100662.63;;;18.84
18161;BMP280;9205;52.032;4.314;2022-09-09T00:20:55;100662.44;;;18.87
18161;BMP280;9205;52.032;4.314;2022-09-09T00:23:28;100660.94;;;18.83
18161;BMP280;9205;52.032;4.314;2022-09-09T00:26:06;100661.81;;;18.84
18161;BMP280;9205;52.032;4.314;2022-09-09T00:28:42;100656.66;;;18.84
18161;BMP280;9205;52.032;4.314;2022-09-09T00:31:18;100640.38;;;18.83
18161;BMP280;9205;52.032;4.314;2022-09-09T00:33:49;100651.56;;;18.82
18161;BMP280;9205;52.032;4.314;2022-09-09T00:36:21;100640.56;;;18.80
18161;BMP280;9205;52.032;4.314;2022-09-09T00:38:56;100640.88;;;18.74
18161;BMP280;9205;52.032;4.314;2022-09-09T00:41:39;100638.41;;;18.73
18161;BMP280;9205;52.032;4.314;2022-09-09T00:44:25;100640.25;;;18.71
18161;BMP280;9205;52.032;4.314;2022-09-09T00:47:09;100639.59;;;18.67
18161;BMP280;9205;52.032;4.314;2022-09-09T00:49:52;100641.25;;;18.68
18161;BMP280;9205;52.032;4.314;2022-09-09T00:52:36;100638.59;;;18.70
18161;BMP280;9205;52.032;4.314;2022-09-09T00:55:16;100632.72;;;18.68
18161;BMP280;9205;52.032;4.314;2022-09-09T00:57:51;100636.84;;;18.70
18161;BMP280;9205;52.032;4.314;2022-09-09T01:00:23;100633.38;;;18.71
18161;BMP280;9205;52.032;4.314;2022-09-09T01:03:06;100628.97;;;18.73
18161;BMP280;9205;52.032;4.314;2022-09-09T01:05:46;100621.50;;;18.69
18161;BMP280;9205;52.032;4.314;2022-09-09T01:08:35;100625.81;;;18.68
18161;BMP280;9205;52.032;4.314;2022-09-09T01:11:10;100622.44;;;18.68
18161;BMP280;9205;52.032;4.314;2022-09-09T01:13:45;100615.53;;;18.68
18161;BMP280;9205;52.032;4.314;2022-09-09T01:16:15;100615.72;;;18.65
18161;BMP280;9205;52.032;4.314;2022-09-09T01:18:49;100615.03;;;18.62
18161;BMP280;9205;52.032;4.314;2022-09-09T01:21:29;100615.13;;;18.60
18161;BMP280;9205;52.032;4.314;2022-09-09T01:24:20;100612.56;;;18.60
18161;BMP280;9205;52.032;4.314;2022-09-09T01:27:11;100604.94;;;18.59
18161;BMP280;9205;52.032;4.314;2022-09-09T01:29:39;100609.44;;;18.55
18161;BMP280;9205;52.032;4.314;2022-09-09T01:32:40;100608.53;;;18.56
18161;BMP280;9205;52.032;4.314;2022-09-09T01:35:15;100600.06;;;18.54
18161;BMP280;9205;52.032;4.314;2022-09-09T01:37:45;100588.47;;;18.47
18161;BMP280;9205;52.032;4.314;2022-09-09T01:40:12;100590.28;;;18.45
18161;BMP280;9205;52.032;4.314;2022-09-09T01:42:41;100592.97;;;18.44
18161;BMP280;9205;52.032;4.314;2022-09-09T01:45:09;100589.47;;;18.45
18161;BMP280;9205;52.032;4.314;2022-09-09T01:47:37;100580.00;;;18.45
18161;BMP280;9205;52.032;4.314;2022-09-09T01:50:17;100592.13;;;18.43
18161;BMP280;9205;52.032;4.314;2022-09-09T01:52:49;100588.81;;;18.41
18161;BMP280;9205;52.032;4.314;2022-09-09T01:55:29;100585.41;;;18.41
18161;BMP280;9205;52.032;4.314;2022-09-09T01:58:17;100584.66;;;18.39
18161;BMP280;9205;52.032;4.314;2022-09-09T02:01:02;100580.47;;;18.38
18161;BMP280;9205;52.032;4.314;2022-09-09T02:03:34;100575.97;;;18.41
18161;BMP280;9205;52.032;4.314;2022-09-09T02:06:27;100576.88;;;18.40
18161;BMP280;9205;52.032;4.314;2022-09-09T02:09:06;100569.97;;;18.41
18161;BMP280;9205;52.032;4.314;2022-09-09T02:11:35;100574.31;;;18.40
18161;BMP280;9205;52.032;4.314;2022-09-09T02:14:21;100565.34;;;18.32
18161;BMP280;9205;52.032;4.314;2022-09-09T02:16:56;100570.50;;;18.32
18161;BMP280;9205;52.032;4.314;2022-09-09T02:19:37;100557.75;;;18.30
18161;BMP280;9205;52.032;4.314;2022-09-09T02:22:24;100551.13;;;18.26
18161;BMP280;9205;52.032;4.314;2022-09-09T02:24:59;100555.53;;;18.24
18161;BMP280;9205;52.032;4.314;2022-09-09T02:27:29;100552.34;;;18.19
18161;BMP280;9205;52.032;4.314;2022-09-09T02:30:00;100549.84;;;18.18
18161;BMP280;9205;52.032;4.314;2022-09-09T02:32:42;100539.84;;;18.13
18161;BMP280;9205;52.032;4.314;2022-09-09T02:35:16;100548.38;;;18.14
18161;BMP280;9205;52.032;4.314;2022-09-09T02:37:46;100545.81;;;18.14
18161;BMP280;9205;52.032;4.314;2022-09-09T02:40:14;100549.09;;;18.16
18161;BMP280;9205;52.032;4.314;2022-09-09T02:42:48;100552.69;;;18.13
18161;BMP280;9205;52.032;4.314;2022-09-09T02:45:22;100554.53;;;18.11
18161;BMP280;9205;52.032;4.314;2022-09-09T02:48:00;100555.09;;;18.16
18161;BMP280;9205;52.032;4.314;2022-09-09T02:50:33;100555.25;;;18.13
18161;BMP280;9205;52.032;4.314;2022-09-09T02:53:11;100556.75;;;18.17
18161;BMP280;9205;52.032;4.314;2022-09-09T02:55:48;100553.44;;;18.15
18161;BMP280;9205;52.032;4.314;2022-09-09T02:58:19;100551.63;;;18.17
18161;BMP280;9205;52.032;4.314;2022-09-09T03:00:58;100548.28;;;18.15
18161;BMP280;9205;52.032;4.314;2022-09-09T03:03:30;100544.16;;;18.13
18161;BMP280;9205;52.032;4.314;2022-09-09T03:06:00;100542.50;;;18.12
18161;BMP280;9205;52.032;4.314;2022-09-09T03:08:27;100535.69;;;18.11
18161;BMP280;9205;52.032;4.314;2022-09-09T03:10:59;100539.38;;;18.07
18161;BMP280;9205;52.032;4.314;2022-09-09T03:13:30;100538.22;;;17.97
18161;BMP280;9205;52.032;4.314;2022-09-09T03:15:58;100532.22;;;17.97
18161;BMP280;9205;52.032;4.314;2022-09-09T03:18:27;100526.19;;;17.98
18161;BMP280;9205;52.032;4.314;2022-09-09T03:20:55;100530.06;;;18.04
18161;BMP280;9205;52.032;4.314;2022-09-09T03:23:23;100523.63;;;17.98
18161;BMP280;9205;52.032;4.314;2022-09-09T03:25:51;100530.59;;;17.96
18161;BMP280;9205;52.032;4.314;2022-09-09T03:28:27;100526.03;;;18.01
18161;BMP280;9205;52.032;4.314;2022-09-09T03:31:04;100531.31;;;17.98
18161;BMP280;9205;52.032;4.314;2022-09-09T03:33:35;100529.75;;;17.95
18161;BMP280;9205;52.032;4.314;2022-09-09T03:36:04;100527.28;;;17.94
18161;BMP280;9205;52.032;4.314;2022-09-09T03:38:31;100523.97;;;17.92
18161;BMP280;9205;52.032;4.314;2022-09-09T03:40:59;100526.78;;;17.87
18161;BMP280;9205;52.032;4.314;2022-09-09T03:43:28;100532.19;;;17.83
18161;BMP280;9205;52.032;4.314;2022-09-09T03:45:56;100522.56;;;17.86
18161;BMP280;9205;52.032;4.314;2022-09-09T03:48:27;100517.91;;;17.93
18161;BMP280;9205;52.032;4.314;2022-09-09T03:50:55;100528.28;;;17.91
18161;BMP280;9205;52.032;4.314;2022-09-09T03:53:24;100516.41;;;17.89
18161;BMP280;9205;52.032;4.314;2022-09-09T03:55:54;100519.75;;;17.91
18161;BMP280;9205;52.032;4.314;2022-09-09T03:58:25;100527.44;;;17.91
18161;BMP280;9205;52.032;4.314;2022-09-09T04:00:58;100519.00;;;17.89
18161;BMP280;9205;52.032;4.314;2022-09-09T04:03:29;100517.44;;;17.86
18161;BMP280;9205;52.032;4.314;2022-09-09T04:05:59;100508.72;;;17.89
18161;BMP280;9205;52.032;4.314;2022-09-09T04:08:29;100503.66;;;17.87
18161;BMP280;9205;52.032;4.314;2022-09-09T04:11:00;100502.75;;;17.88
18161;BMP280;9205;52.032;4.314;2022-09-09T04:13:32;100506.88;;;17.91
18161;BMP280;9205;52.032;4.314;2022-09-09T04:16:02;100505.97;;;17.92
18161;BMP280;9205;52.032;4.314;2022-09-09T04:18:33;100502.50;;;17.93
18161;BMP280;9205;52.032;4.314;2022-09-09T04:21:02;100494.78;;;17.93
18161;BMP280;9205;52.032;4.314;2022-09-09T04:23:32;100495.59;;;17.93
18161;BMP280;9205;52.032;4.314;2022-09-09T04:26:02;100492.97;;;17.95
18161;BMP280;9205;52.032;4.314;2022-09-09T04:28:34;100485.16;;;17.96
18161;BMP280;9205;52.032;4.314;2022-09-09T04:31:06;100474.25;;;17.93
18161;BMP280;9205;52.032;4.314;2022-09-09T04:33:35;100478.47;;;17.94
18161;BMP280;9205;52.032;4.314;2022-09-09T04:36:03;100482.09;;;17.90
18161;BMP280;9205;52.032;4.314;2022-09-09T04:38:31;100468.53;;;17.88
18161;BMP280;9205;52.032;4.314;2022-09-09T04:40:59;100474.50;;;17.88
18161;BMP280;9205;52.032;4.314;2022-09-09T04:43:26;100467.78;;;17.86
18161;BMP280;9205;52.032;4.314;2022-09-09T04:45:54;100463.41;;;17.88
18161;BMP280;9205;52.032;4.314;2022-09-09T04:48:24;100469.72;;;17.82
18161;BMP280;9205;52.032;4.314;2022-09-09T04:50:57;100466.22;;;17.83
18161;BMP280;9205;52.032;4.314;2022-09-09T04:53:25;100475.59;;;17.84
18161;BMP280;9205;52.032;4.314;2022-09-09T04:56:00;100473.84;;;17.85
18161;BMP280;9205;52.032;4.314;2022-09-09T04:58:29;100467.25;;;17.81
18161;BMP280;9205;52.032;4.314;2022-09-09T05:01:04;100470.63;;;17.81
18161;BMP280;9205;52.032;4.314;2022-09-09T05:03:31;100477.66;;;17.78
18161;BMP280;9205;52.032;4.314;2022-09-09T05:06:07;100474.94;;;17.81
18161;BMP280;9205;52.032;4.314;2022-09-09T05:08:37;100476.81;;;17.77
18161;BMP280;9205;52.032;4.314;2022-09-09T05:11:13;100462.34;;;17.76
18161;BMP280;9205;52.032;4.314;2022-09-09T05:13:40;100463.31;;;17.74
18161;BMP280;9205;52.032;4.314;2022-09-09T05:16:08;100469.47;;;17.71
18161;BMP280;9205;52.032;4.314;2022-09-09T05:18:37;100456.72;;;17.70
18161;BMP280;9205;52.032;4.314;2022-09-09T05:21:07;100459.13;;;17.73
18161;BMP280;9205;52.032;4.314;2022-09-09T05:23:35;100451.13;;;17.77
18161;BMP280;9205;52.032;4.314;2022-09-09T05:26:04;100460.03;;;17.72
18161;BMP280;9205;52.032;4.314;2022-09-09T05:28:34;100451.22;;;17.76
18161;BMP280;9205;52.032;4.314;2022-09-09T05:31:04;100452.13;;;17.75
18161;BMP280;9205;52.032;4.314;2022-09-09T05:33:35;100451.72;;;17.82
18161;BMP280;9205;52.032;4.314;2022-09-09T05:36:08;100458.59;;;17.82
18161;BMP280;9205;52.032;4.314;2022-09-09T05:38:36;100472.28;;;17.82
18161;BMP280;9205;52.032;4.314;2022-09-09T05:41:06;100473.03;;;17.84
18161;BMP280;9205;52.032;4.314;2022-09-09T05:43:34;100469.34;;;17.88
18161;BMP280;9205;52.032;4.314;2022-09-09T05:46:07;100483.00;;;17.89
18161;BMP280;9205;52.032;4.314;2022-09-09T05:48:37;100492.38;;;17.90
18161;BMP280;9205;52.032;4.314;2022-09-09T05:51:07;100484.34;;;17.96
18161;BMP280;9205;52.032;4.314;2022-09-09T05:53:35;100482.69;;;17.95
18161;BMP280;9205;52.032;4.314;2022-09-09T05:56:05;100486.09;;;17.95
18161;BMP280;9205;52.032;4.314;2022-09-09T05:58:35;100487.63;;;17.98
18161;BMP280;9205;52.032;4.314;2022-09-09T06:01:07;100485.47;;;18.05
18161;BMP280;9205;52.032;4.314;2022-09-09T06:03:37;100478.34;;;18.10
18161;BMP280;9205;52.032;4.314;2022-09-09T06:06:09;100481.06;;;18.07
18161;BMP280;9205;52.032;4.314;2022-09-09T06:08:38;100480.25;;;18.07
18161;BMP280;9205;52.032;4.314;2022-09-09T06:11:12;100480.16;;;18.08
18161;BMP280;9205;52.032;4.314;2022-09-09T06:13:41;100474.38;;;18.05
18161;BMP280;9205;52.032;4.314;2022-09-09T06:16:10;100479.25;;;18.09
18161;BMP280;9205;52.032;4.314;2022-09-09T06:18:39;100479.53;;;18.19
18161;BMP280;9205;52.032;4.314;2022-09-09T06:21:13;100473.50;;;18.20
18161;BMP280;9205;52.032;4.314;2022-09-09T06:23:42;100479.63;;;18.17
18161;BMP280;9205;52.032;4.314;2022-09-09T06:26:14;100482.03;;;18.20
18161;BMP280;9205;52.032;4.314;2022-09-09T06:28:44;100478.50;;;18.23
18161;BMP280;9205;52.032;4.314;2022-09-09T06:31:14;100476.06;;;18.20
18161;BMP280;9205;52.032;4.314;2022-09-09T06:33:43;100481.88;;;18.23
18161;BMP280;9205;52.032;4.314;2022-09-09T06:36:15;100479.41;;;18.22
18161;BMP280;9205;52.032;4.314;2022-09-09T06:38:44;100486.00;;;18.26
18161;BMP280;9205;52.032;4.314;2022-09-09T06:41:15;100481.16;;;18.35
18161;BMP280;9205;52.032;4.314;2022-09-09T06:43:45;100478.03;;;18.30
18161;BMP280;9205;52.032;4.314;2022-09-09T06:46:15;100477.47;;;18.25
18161;BMP280;9205;52.032;4.314;2022-09-09T06:48:43;100478.94;;;18.29
18161;BMP280;9205;52.032;4.314;2022-09-09T06:51:16;100477.28;;;18.28
18161;BMP280;9205;52.032;4.314;2022-09-09T06:53:45;100480.44;;;18.33
18161;BMP280;9205;52.032;4.314;2022-09-09T06:56:19;100465.81;;;18.34
18161;BMP280;9205;52.032;4.314;2022-09-09T06:58:52;100478.53;;;18.37
18161;BMP280;9205;52.032;4.314;2022-09-09T07:01:27;100480.44;;;18.33
18161;BMP280;9205;52.032;4.314;2022-09-09T07:04:04;100480.50;;;18.32
18161;BMP280;9205;52.032;4.314;2022-09-09T07:06:38;100478.50;;;18.23
18161;BMP280;9205;52.032;4.314;2022-09-09T07:09:10;100478.19;;;18.27
18161;BMP280;9205;52.032;4.314;2022-09-09T07:11:42;100478.94;;;18.29
18161;BMP280;9205;52.032;4.314;2022-09-09T07:14:11;100480.06;;;18.25
18161;BMP280;9205;52.032;4.314;2022-09-09T07:16:41;100469.66;;;18.27
18161;BMP280;9205;52.032;4.314;2022-09-09T07:19:09;100473.25;;;18.24
18161;BMP280;9205;52.032;4.314;2022-09-09T07:21:38;100473.81;;;18.29
18161;BMP280;9205;52.032;4.314;2022-09-09T07:24:08;100479.84;;;18.28
18161;BMP280;9205;52.032;4.314;2022-09-09T07:26:38;100477.13;;;18.31
18161;BMP280;9205;52.032;4.314;2022-09-09T07:29:07;100467.59;;;18.33
18161;BMP280;9205;52.032;4.314;2022-09-09T07:31:37;100473.44;;;18.35
18161;BMP280;9205;52.032;4.314;2022-09-09T07:34:08;100469.78;;;18.39
18161;BMP280;9205;52.032;4.314;2022-09-09T07:36:39;100472.25;;;18.41
18161;BMP280;9205;52.032;4.314;2022-09-09T07:39:11;100476.75;;;18.37
18161;BMP280;9205;52.032;4.314;2022-09-09T07:41:45;100483.06;;;18.32
18161;BMP280;9205;52.032;4.314;2022-09-09T07:44:18;100474.94;;;18.39
18161;BMP280;9205;52.032;4.314;2022-09-09T07:46:49;100477.13;;;18.45
18161;BMP280;9205;52.032;4.314;2022-09-09T07:49:20;100478.78;;;18.46
18161;BMP280;9205;52.032;4.314;2022-09-09T07:51:49;100484.59;;;18.50
18161;BMP280;9205;52.032;4.314;2022-09-09T07:54:19;100479.72;;;18.45
18161;BMP280;9205;52.032;4.314;2022-09-09T07:56:50;100485.22;;;18.39
18161;BMP280;9205;52.032;4.314;2022-09-09T07:59:19;100474.75;;;18.42
18161;BMP280;9205;52.032;4.314;2022-09-09T08:01:51;100477.50;;;18.53
18161;BMP280;9205;52.032;4.314;2022-09-09T08:04:23;100480.84;;;18.55
18161;BMP280;9205;52.032;4.314;2022-09-09T08:06:55;100475.47;;;18.58
18161;BMP280;9205;52.032;4.314;2022-09-09T08:09:25;100484.97;;;18.58
18161;BMP280;9205;52.032;4.314;2022-09-09T08:11:58;100484.16;;;18.57
18161;BMP280;9205;52.032;4.314;2022-09-09T08:14:26;100477.16;;;18.59
18161;BMP280;9205;52.032;4.314;2022-09-09T08:16:55;100476.06;;;18.63
18161;BMP280;9205;52.032;4.314;2022-09-09T08:19:24;100478.63;;;18.63
18161;BMP280;9205;52.032;4.314;2022-09-09T08:21:54;100472.47;;;18.66
18161;BMP280;9205;52.032;4.314;2022-09-09T08:24:21;100475.78;;;18.68
18161;BMP280;9205;52.032;4.314;2022-09-09T08:26:49;100490.38;;;18.67
18161;BMP280;9205;52.032;4.314;2022-09-09T08:29:21;100479.00;;;18.71
18161;BMP280;9205;52.032;4.314;2022-09-09T08:31:51;100480.09;;;18.67
18161;BMP280;9205;52.032;4.314;2022-09-09T08:34:21;100480.94;;;18.68
18161;BMP280;9205;52.032;4.314;2022-09-09T08:36:50;100473.84;;;18.71
18161;BMP280;9205;52.032;4.314;2022-09-09T08:39:22;100479.75;;;18.73
18161;BMP280;9205;52.032;4.314;2022-09-09T08:42:17;100472.38;;;18.81
18161;BMP280;9205;52.032;4.314;2022-09-09T08:45:03;100483.50;;;18.82
18161;BMP280;9205;52.032;4.314;2022-09-09T08:47:45;100483.66;;;18.79
18161;BMP280;9205;52.032;4.314;2022-09-09T08:50:25;100481.19;;;18.77
18161;BMP280;9205;52.032;4.314;2022-09-09T08:53:04;100487.25;;;18.76
18161;BMP280;9205;52.032;4.314;2022-09-09T08:56:46;100487.16;;;18.78
18161;BMP280;9205;52.032;4.314;2022-09-09T08:59:04;100483.13;;;18.74
18161;BMP280;9205;52.032;4.314;2022-09-09T09:01:51;100486.72;;;18.71
18161;BMP280;9205;52.032;4.314;2022-09-09T09:04:56;100488.28;;;18.74
18161;BMP280;9205;52.032;4.314;2022-09-09T09:07:42;100498.66;;;18.72
18161;BMP280;9205;52.032;4.314;2022-09-09T09:10:22;100485.53;;;18.77
18161;BMP280;9205;52.032;4.314;2022-09-09T09:12:54;100494.81;;;18.79
18161;BMP280;9205;52.032;4.314;2022-09-09T09:15:27;100494.59;;;18.82
18161;BMP280;9205;52.032;4.314;2022-09-09T09:17:57;100489.56;;;18.81
18161;BMP280;9205;52.032;4.314;2022-09-09T09:20:39;100496.19;;;18.85
18161;BMP280;9205;52.032;4.314;2022-09-09T09:23:18;100496.09;;;18.86
18161;BMP280;9205;52.032;4.314;2022-09-09T09:25:48;100492.22;;;18.93
18161;BMP280;9205;52.032;4.314;2022-09-09T09:28:22;100489.16;;;19.00
18161;BMP280;9205;52.032;4.314;2022-09-09T09:30:58;100488.38;;;19.14
18161;BMP280;9205;52.032;4.314;2022-09-09T09:33:38;100480.25;;;19.20
18161;BMP280;9205;52.032;4.314;2022-09-09T09:36:12;100485.22;;;19.23
18161;BMP280;9205;52.032;4.314;2022-09-09T09:38:53;100481.00;;;19.22
18161;BMP280;9205;52.032;4.314;2022-09-09T09:41:34;100491.84;;;19.27
18161;BMP280;9205;52.032;4.314;2022-09-09T09:44:06;100489.28;;;19.27
18161;BMP280;9205;52.032;4.314;2022-09-09T09:46:35;100494.69;;;19.08
18161;BMP280;9205;52.032;4.314;2022-09-09T09:49:10;100492.94;;;18.81
18161;BMP280;9205;52.032;4.314;2022-09-09T09:51:40;100494.06;;;18.63
18161;BMP280;9205;52.032;4.314;2022-09-09T09:54:24;100500.75;;;18.52
18161;BMP280;9205;52.032;4.314;2022-09-09T09:56:55;100504.28;;;18.35
18161;BMP280;9205;52.032;4.314;2022-09-09T09:59:35;100496.94;;;18.29
18161;BMP280;9205;52.032;4.314;2022-09-09T10:02:20;100497.69;;;18.31
18161;BMP280;9205;52.032;4.314;2022-09-09T10:05:04;100491.91;;;18.28
18161;BMP280;9205;52.032;4.314;2022-09-09T10:07:33;100492.66;;;18.30
18161;BMP280;9205;52.032;4.314;2022-09-09T10:10:04;100500.16;;;18.33
18161;BMP280;9205;52.032;4.314;2022-09-09T10:12:46;100493.56;;;18.29
18161;BMP280;9205;52.032;4.314;2022-09-09T10:15:31;100487.78;;;18.39
18161;BMP280;9205;52.032;4.314;2022-09-09T10:18:12;100488.88;;;18.35
18161;BMP280;9205;52.032;4.314;2022-09-09T10:20:54;100489.22;;;18.29
18161;BMP280;9205;52.032;4.314;2022-09-09T10:23:51;100487.63;;;18.42
18161;BMP280;9205;52.032;4.314;2022-09-09T10:26:37;100475.41;;;18.60
18161;BMP280;9205;52.032;4.314;2022-09-09T10:29:28;100483.03;;;18.75
18161;BMP280;9205;52.032;4.314;2022-09-09T10:32:20;100488.38;;;18.86
18161;BMP280;9205;52.032;4.314;2022-09-09T10:34:57;100487.81;;;18.95
18161;BMP280;9205;52.032;4.314;2022-09-09T10:37:43;100482.75;;;18.93
18161;BMP280;9205;52.032;4.314;2022-09-09T10:40:25;100487.53;;;18.99
18161;BMP280;9205;52.032;4.314;2022-09-09T10:43:07;100480.75;;;18.98
18161;BMP280;9205;52.032;4.314;2022-09-09T10:45:50;100486.31;;;19.05
18161;BMP280;9205;52.032;4.314;2022-09-09T10:48:57;100482.66;;;19.09
18161;BMP280;9205;52.032;4.314;2022-09-09T10:51:39;100487.63;;;19.12
18161;BMP280;9205;52.032;4.314;2022-09-09T10:54:30;100483.50;;;19.23
18161;BMP280;9205;52.032;4.314;2022-09-09T10:57:07;100479.25;;;19.22
18161;BMP280;9205;52.032;4.314;2022-09-09T10:59:40;100478.63;;;19.19
18161;BMP280;9205;52.032;4.314;2022-09-09T11:02:16;100478.81;;;19.16
18161;BMP280;9205;52.032;4.314;2022-09-09T11:04:53;100471.81;;;19.18
18161;BMP280;9205;52.032;4.314;2022-09-09T11:07:31;100468.75;;;19.25
18161;BMP280;9205;52.032;4.314;2022-09-09T11:10:05;100480.44;;;19.31
18161;BMP280;9205;52.032;4.314;2022-09-09T11:12:38;100480.53;;;19.29
18161;BMP280;9205;52.032;4.314;2022-09-09T11:15:13;100476.94;;;19.32
18161;BMP280;9205;52.032;4.314;2022-09-09T11:17:46;100476.03;;;19.33
18161;BMP280;9205;52.032;4.314;2022-09-09T11:20:19;100481.53;;;19.41
18161;BMP280;9205;52.032;4.314;2022-09-09T11:22:53;100477.00;;;19.44
18161;BMP280;9205;52.032;4.314;2022-09-09T11:25:28;100483.25;;;19.40
18161;BMP280;9205;52.032;4.314;2022-09-09T11:28:36;100485.19;;;19.37
18161;BMP280;9205;52.032;4.314;2022-09-09T11:31:24;100482.72;;;19.35
18161;BMP280;9205;52.032;4.314;2022-09-09T11:34:24;100490.28;;;19.24
18161;BMP280;9205;52.032;4.314;2022-09-09T11:37:35;100496.81;;;19.02
18161;BMP280;9205;52.032;4.314;2022-09-09T11:40:19;100492.22;;;18.93
18161;BMP280;9205;52.032;4.314;2022-09-09T11:42:49;100496.19;;;18.98
18161;BMP280;9205;52.032;4.314;2022-09-09T11:45:28;100495.34;;;18.98
18161;BMP280;9205;52.032;4.314;2022-09-09T11:47:57;100504.44;;;19.03
18161;BMP280;9205;52.032;4.314;2022-09-09T11:50:35;100508.22;;;19.12
18161;BMP280;9205;52.032;4.314;2022-09-09T11:53:21;100506.00;;;19.20
18161;BMP280;9205;52.032;4.314;2022-09-09T11:56:11;100493.72;;;19.11
18161;BMP280;9205;52.032;4.314;2022-09-09T11:58:55;100495.00;;;19.18
18161;BMP280;9205;52.032;4.314;2022-09-09T12:01:39;100491.84;;;19.27
18161;BMP280;9205;52.032;4.314;2022-09-09T12:04:37;100494.03;;;19.33
18161;BMP280;9205;52.032;4.314;2022-09-09T12:07:32;100496.34;;;19.37
18161;BMP280;9205;52.032;4.314;2022-09-09T12:10:18;100505.72;;;19.38
18161;BMP280;9205;52.032;4.314;2022-09-09T12:12:46;100501.00;;;19.45
18161;BMP280;9205;52.032;4.314;2022-09-09T12:15:27;100509.75;;;19.42
18161;BMP280;9205;52.032;4.314;2022-09-09T12:17:57;100497.16;;;19.38
18161;BMP280;9205;52.032;4.314;2022-09-09T12:20:34;100497.25;;;19.36
18161;BMP280;9205;52.032;4.314;2022-09-09T12:23:20;100503.22;;;19.37
18161;BMP280;9205;52.032;4.314;2022-09-09T12:26:05;100504.97;;;19.36
18161;BMP280;9205;52.032;4.314;2022-09-09T12:28:56;100503.16;;;19.38
18161;BMP280;9205;52.032;4.314;2022-09-09T12:31:32;100507.16;;;19.42
18161;BMP280;9205;52.032;4.314;2022-09-09T12:34:12;100510.19;;;19.49
18161;BMP280;9205;52.032;4.314;2022-09-09T12:36:42;100514.72;;;19.45
18161;BMP280;9205;52.032;4.314;2022-09-09T12:39:18;100531.91;;;19.45
18161;BMP280;9205;52.032;4.314;2022-09-09T12:41:54;100514.91;;;19.42
18161;BMP280;9205;52.032;4.314;2022-09-09T12:44:23;100514.16;;;19.40
18161;BMP280;9205;52.032;4.314;2022-09-09T12:46:52;100516.28;;;19.48
18161;BMP280;9205;52.032;4.314;2022-09-09T12:49:30;100511.84;;;19.50
18161;BMP280;9205;52.032;4.314;2022-09-09T12:52:06;100511.22;;;19.46
18161;BMP280;9205;52.032;4.314;2022-09-09T12:54:36;100518.00;;;19.47
18161;BMP280;9205;52.032;4.314;2022-09-09T12:57:11;100523.75;;;19.38
18161;BMP280;9205;52.032;4.314;2022-09-09T12:59:40;100522.44;;;19.31
18161;BMP280;9205;52.032;4.314;2022-09-09T13:02:20;100517.44;;;19.16
18161;BMP280;9205;52.032;4.314;2022-09-09T13:04:48;100522.34;;;19.05
18161;BMP280;9205;52.032;4.314;2022-09-09T13:07:17;100507.75;;;19.05
18161;BMP280;9205;52.032;4.314;2022-09-09T13:09:46;100514.31;;;19.11
18161;BMP280;9205;52.032;4.314;2022-09-09T13:12:19;100522.47;;;19.17
18161;BMP280;9205;52.032;4.314;2022-09-09T13:14:51;100518.34;;;19.15
18161;BMP280;9205;52.032;4.314;2022-09-09T13:17:23;100527.72;;;19.16
18161;BMP280;9205;52.032;4.314;2022-09-09T13:19:52;100539.22;;;19.10
18161;BMP280;9205;52.032;4.314;2022-09-09T13:22:29;100522.94;;;18.96
18161;BMP280;9205;52.032;4.314;2022-09-09T13:25:06;100536.03;;;18.78
18161;BMP280;9205;52.032;4.314;2022-09-09T13:27:36;100547.34;;;18.61
18161;BMP280;9205;52.032;4.314;2022-09-09T13:30:21;100554.41;;;18.28
18161;BMP280;9205;52.032;4.314;2022-09-09T13:33:06;100550.59;;;18.20
18161;BMP280;9205;52.032;4.314;2022-09-09T13:35:49;100547.34;;;18.03
18161;BMP280;9205;52.032;4.314;2022-09-09T13:38:17;100545.03;;;17.98
18161;BMP280;9205;52.032;4.314;2022-09-09T13:40:56;100548.59;;;17.96
18161;BMP280;9205;52.032;4.314;2022-09-09T13:43:27;100549.91;;;17.87
18161;BMP280;9205;52.032;4.314;2022-09-09T13:45:57;100540.22;;;17.92
18161;BMP280;9205;52.032;4.314;2022-09-09T13:48:25;100551.97;;;17.96
18161;BMP280;9205;52.032;4.314;2022-09-09T13:51:02;100552.53;;;18.01
18161;BMP280;9205;52.032;4.314;2022-09-09T13:53:31;100550.47;;;18.07
18161;BMP280;9205;52.032;4.314;2022-09-09T13:55:59;100544.16;;;18.13
18161;BMP280;9205;52.032;4.314;2022-09-09T13:58:28;100541.00;;;18.23
18161;BMP280;9205;52.032;4.314;2022-09-09T14:00:55;100535.25;;;18.34
18161;BMP280;9205;52.032;4.314;2022-09-09T14:03:23;100532.81;;;18.46
18161;BMP280;9205;52.032;4.314;2022-09-09T14:05:50;100527.56;;;18.62
18161;BMP280;9205;52.032;4.314;2022-09-09T14:08:25;100531.38;;;18.70
18161;BMP280;9205;52.032;4.314;2022-09-09T14:10:54;100528.25;;;18.79
18161;BMP280;9205;52.032;4.314;2022-09-09T14:13:23;100509.69;;;18.88
18161;BMP280;9205;52.032;4.314;2022-09-09T14:15:51;100511.78;;;18.95
18161;BMP280;9205;52.032;4.314;2022-09-09T14:18:19;100513.81;;;19.04
18161;BMP280;9205;52.032;4.314;2022-09-09T14:20:48;100529.91;;;19.22
18161;BMP280;9205;52.032;4.314;2022-09-09T14:23:16;100519.53;;;19.37
18161;BMP280;9205;52.032;4.314;2022-09-09T14:25:44;100530.31;;;19.56
18161;BMP280;9205;52.032;4.314;2022-09-09T14:28:13;100533.47;;;19.73
18161;BMP280;9205;52.032;4.314;2022-09-09T14:30:42;100536.31;;;19.83
18161;BMP280;9205;52.032;4.314;2022-09-09T14:33:15;100537.22;;;19.96
18161;BMP280;9205;52.032;4.314;2022-09-09T14:35:43;100538.06;;;19.96
18161;BMP280;9205;52.032;4.314;2022-09-09T14:38:11;100537.47;;;19.91
18161;BMP280;9205;52.032;4.314;2022-09-09T14:40:38;100547.16;;;19.88
18161;BMP280;9205;52.032;4.314;2022-09-09T14:43:05;100545.53;;;19.73
18161;BMP280;9205;52.032;4.314;2022-09-09T14:45:35;100549.88;;;19.72
18161;BMP280;9205;52.032;4.314;2022-09-09T14:48:03;100561.81;;;19.73
18161;BMP280;9205;52.032;4.314;2022-09-09T14:50:32;100556.50;;;19.76
18161;BMP280;9205;52.032;4.314;2022-09-09T14:53:00;100561.53;;;19.78